createdAt,value
2018-04-10T00:00:37.756Z,58.32
2018-04-10T00:03:05.399Z,58.43
2018-04-10T00:05:33.020Z,58.96
2018-04-10T00:08:00.612Z,59.26
2018-04-10T00:10:28.220Z,59.72
2018-04-10T00:12:55.838Z,59.50
2018-04-10T00:15:23.421Z,60.44
2018-04-10T00:17:51.060Z,60.60
2018-04-10T00:20:18.736Z,59.75
2018-04-10T00:22:46.374Z,60.48
2018-04-10T00:25:14.008Z,60.55
2018-04-10T00:27:41.594Z,60.00
2018-04-10T00:30:09.178Z,60.74
2018-04-10T00:32:36.805Z,61.05
2018-04-10T00:35:04.477Z,61.24
2018-04-10T00:37:32.105Z,61.33
2018-04-10T00:39:59.709Z,61.77
2018-04-10T00:42:27.295Z,61.67
2018-04-10T00:44:54.885Z,61.52
2018-04-10T00:47:22.510Z,61.46
2018-04-10T00:49:50.108Z,61.59
2018-04-10T00:52:17.708Z,62.28
2018-04-10T00:54:45.300Z,62.80
2018-04-10T00:57:12.884Z,63.04
2018-04-10T00:59:40.470Z,63.31
2018-04-10T01:02:08.061Z,63.08
2018-04-10T01:04:35.690Z,63.25
2018-04-10T01:07:03.285Z,63.84
2018-04-10T01:09:30.884Z,63.40
2018-04-10T01:11:58.492Z,63.55
2018-04-10T01:14:26.077Z,64.49
2018-04-10T01:16:53.712Z,64.35
2018-04-10T01:19:21.301Z,63.85
2018-04-10T01:21:48.896Z,64.71
2018-04-10T01:24:16.526Z,64.79
2018-04-10T01:26:44.116Z,65.06
2018-04-10T01:29:11.708Z,64.90
2018-04-10T01:31:39.336Z,65.83
2018-04-10T01:34:06.916Z,64.83
2018-04-10T01:36:34.504Z,64.97
2018-04-10T01:39:02.129Z,64.31
2018-04-10T01:41:29.732Z,64.30
2018-04-10T01:43:57.317Z,65.07
2018-04-10T01:46:24.952Z,64.96
2018-04-10T01:48:52.546Z,65.07
2018-04-10T01:51:20.184Z,65.25
2018-04-10T01:53:47.784Z,65.06
2018-04-10T01:56:15.400Z,65.50
2018-04-10T01:58:43.000Z,65.63
2018-04-10T02:01:10.593Z,64.90
2018-04-10T02:03:38.184Z,66.03
2018-04-10T02:06:05.769Z,65.76
2018-04-10T02:08:33.392Z,65.17
2018-04-10T02:11:00.986Z,65.47
2018-04-10T02:13:28.581Z,65.48
2018-04-10T02:15:56.208Z,65.47
2018-04-10T02:18:23.844Z,65.46
2018-04-10T02:20:51.468Z,65.74
2018-04-10T02:23:19.068Z,66.45
2018-04-10T02:25:46.668Z,66.04
2018-04-10T02:28:14.312Z,66.30
2018-04-10T02:30:41.900Z,66.67
2018-04-10T02:33:09.508Z,66.88
2018-04-10T02:35:37.136Z,66.88
2018-04-10T02:38:04.757Z,66.98
2018-04-10T02:40:32.370Z,66.90
2018-04-10T02:42:59.961Z,67.55
2018-04-10T02:45:27.590Z,66.69
2018-04-10T02:47:55.244Z,66.68
2018-04-10T02:50:22.834Z,67.38
2018-04-10T02:52:50.442Z,67.17
2018-04-10T02:55:18.085Z,66.77
2018-04-10T02:57:45.673Z,67.26
2018-04-10T03:00:13.284Z,67.71
2018-04-10T03:02:40.932Z,68.20
2018-04-10T03:05:08.530Z,68.12
2018-04-10T03:07:36.136Z,67.91
2018-04-10T03:10:03.789Z,67.26
2018-04-10T03:12:31.397Z,67.05
2018-04-10T03:14:59.009Z,68.27
2018-04-10T03:17:26.644Z,69.25
2018-04-10T03:19:54.265Z,69.75
2018-04-10T03:22:21.889Z,69.35
2018-04-10T03:24:49.528Z,68.84
2018-04-10T03:27:17.149Z,68.90
2018-04-10T03:29:44.732Z,68.53
2018-04-10T03:32:12.336Z,68.19
2018-04-10T03:34:39.965Z,68.78
2018-04-10T03:37:07.632Z,68.46
2018-04-10T03:39:35.228Z,69.34
2018-04-10T03:42:02.816Z,68.85
2018-04-10T03:44:30.420Z,68.77
2018-04-10T03:46:58.017Z,69.39
2018-04-10T03:49:25.605Z,69.76
2018-04-10T03:51:53.288Z,70.56
2018-04-10T03:54:20.895Z,70.51
2018-04-10T03:56:48.496Z,69.59
2018-04-10T03:59:16.119Z,68.71
2018-04-10T04:01:43.728Z,68.46
2018-04-10T04:04:11.321Z,68.20
2018-04-10T04:06:38.913Z,68.87
2018-04-10T04:09:06.596Z,69.21
2018-04-10T04:11:34.261Z,69.11
2018-04-10T04:14:01.887Z,69.02
2018-04-10T04:16:41.114Z,68.66
2018-04-10T04:19:20.268Z,68.81
2018-04-10T04:24:52.730Z,69.79
2018-04-10T04:27:20.357Z,70.12
2018-04-10T04:29:48.052Z,69.69
2018-04-10T04:32:15.892Z,69.39
2018-04-10T04:34:43.532Z,69.05
2018-04-10T04:37:11.188Z,69.00
2018-04-10T04:39:38.776Z,69.10
2018-04-10T04:42:06.413Z,68.68
2018-04-10T04:44:34.020Z,68.27
2018-04-10T04:47:01.633Z,67.46
2018-04-10T04:49:29.438Z,67.38
2018-04-10T04:51:57.028Z,67.13
2018-04-10T04:54:24.681Z,66.82
2018-04-10T04:56:52.277Z,68.13
2018-04-10T04:59:19.889Z,67.53
2018-04-10T05:01:47.530Z,66.71
2018-04-10T05:04:15.137Z,65.53
2018-04-10T05:06:42.737Z,65.12
2018-04-10T05:09:10.328Z,65.22
2018-04-10T05:11:37.968Z,64.12
2018-04-10T05:14:05.584Z,63.39
2018-04-10T05:16:33.220Z,61.73
2018-04-10T05:19:00.825Z,60.95
2018-04-10T05:21:28.417Z,60.86
2018-04-10T05:23:57.121Z,59.77
2018-04-10T05:26:25.123Z,59.71
2018-04-10T05:28:52.776Z,58.44
2018-04-10T05:31:20.376Z,57.78
2018-04-10T05:33:47.974Z,57.36
2018-04-10T05:36:15.617Z,56.75
2018-04-10T05:38:43.213Z,56.68
2018-04-10T05:41:10.853Z,56.61
2018-04-10T05:43:38.485Z,55.51
2018-04-10T05:46:06.305Z,54.46
2018-04-10T05:48:33.928Z,53.65
2018-04-10T05:51:01.549Z,51.98
2018-04-10T05:53:29.169Z,51.94
2018-04-10T05:55:56.778Z,52.24
2018-04-10T05:58:24.403Z,52.36
2018-04-10T06:00:52.004Z,51.02
2018-04-10T06:03:19.640Z,51.79
2018-04-10T06:05:47.261Z,51.04
2018-04-10T06:08:14.905Z,51.78
2018-04-10T06:10:42.491Z,51.65
2018-04-10T06:13:10.085Z,51.12
2018-04-10T06:15:37.686Z,52.39
2018-04-10T06:18:05.288Z,52.56
2018-04-10T06:20:32.957Z,52.83
2018-04-10T06:23:00.576Z,54.63
2018-04-10T06:25:28.161Z,54.05
2018-04-10T06:27:55.757Z,54.80
2018-04-10T06:30:23.340Z,54.86
2018-04-10T06:32:50.966Z,54.92
2018-04-10T06:35:18.561Z,55.92
2018-04-10T06:37:46.164Z,56.50
2018-04-10T06:40:13.769Z,55.40
2018-04-10T06:42:41.382Z,55.33
2018-04-10T06:45:09.036Z,54.59
2018-04-10T06:47:36.678Z,53.45
2018-04-10T06:50:04.321Z,52.91
2018-04-10T06:52:31.958Z,51.36
2018-04-10T06:55:07.470Z,51.28
2018-04-10T06:57:35.338Z,51.13
2018-04-10T07:00:02.933Z,49.22
2018-04-10T07:02:30.648Z,49.21
2018-04-10T07:04:58.273Z,49.00
2018-04-10T07:07:25.893Z,47.97
2018-04-10T07:09:53.505Z,47.82
2018-04-10T07:12:21.157Z,48.55
2018-04-10T07:14:48.756Z,47.72
2018-04-10T07:17:16.348Z,47.83
2018-04-10T07:19:43.937Z,46.84
2018-04-10T07:22:11.589Z,46.92
2018-04-10T07:24:39.181Z,45.86
2018-04-10T07:27:06.781Z,45.03
2018-04-10T07:29:34.404Z,44.02
2018-04-10T07:32:02.026Z,45.15
2018-04-10T07:34:29.638Z,45.70
2018-04-10T07:36:57.260Z,45.17
2018-04-10T07:39:24.853Z,45.15
2018-04-10T07:41:52.440Z,45.44
2018-04-10T07:44:20.041Z,44.84
2018-04-10T07:46:47.760Z,43.46
2018-04-10T07:49:15.347Z,42.58
2018-04-10T07:51:42.993Z,43.45
2018-04-10T07:54:10.782Z,42.49
2018-04-10T07:56:38.409Z,42.79
2018-04-10T07:59:06.001Z,44.32
2018-04-10T08:01:33.641Z,41.94
2018-04-10T08:04:01.281Z,40.72
2018-04-10T08:06:28.866Z,41.96
2018-04-10T08:08:56.491Z,40.77
2018-04-10T08:11:24.084Z,39.18
2018-04-10T08:13:51.724Z,39.90
2018-04-10T08:16:19.349Z,39.29
2018-04-10T08:18:46.970Z,38.36
2018-04-10T08:21:14.553Z,37.59
2018-04-10T08:23:42.236Z,38.49
2018-04-10T08:26:09.816Z,37.73
2018-04-10T08:28:37.437Z,34.19
2018-04-10T08:31:05.081Z,33.40
2018-04-10T08:33:32.688Z,32.30
2018-04-10T08:36:00.269Z,32.93
2018-04-10T08:38:27.897Z,33.24
2018-04-10T08:40:55.472Z,33.31
2018-04-10T08:43:23.086Z,31.68
2018-04-10T08:45:50.683Z,33.24
2018-04-10T08:48:18.271Z,32.63
2018-04-10T08:50:45.881Z,32.40
2018-04-10T08:53:13.477Z,32.26
2018-04-10T08:55:41.166Z,33.52
2018-04-10T08:58:08.757Z,32.98
2018-04-10T09:00:36.361Z,31.19
2018-04-10T09:03:04.009Z,29.26
2018-04-10T09:05:31.625Z,30.33
2018-04-10T09:07:59.225Z,29.25
2018-04-10T09:10:26.853Z,29.50
2018-04-10T09:12:54.495Z,27.56
2018-04-10T09:15:22.132Z,27.64
2018-04-10T09:17:49.733Z,28.11
2018-04-10T09:20:17.332Z,27.39
2018-04-10T09:22:44.920Z,24.11
2018-04-10T09:25:12.620Z,24.20
2018-04-10T09:27:40.290Z,24.89
2018-04-10T09:30:07.920Z,23.68
2018-04-10T09:32:35.510Z,23.97
2018-04-10T09:35:03.090Z,24.27
2018-04-10T09:37:30.716Z,23.43
2018-04-10T09:39:58.308Z,24.81
2018-04-10T09:42:25.909Z,23.98
2018-04-10T09:44:53.520Z,23.07
2018-04-10T09:47:21.141Z,23.26
2018-04-10T09:49:48.732Z,22.90
2018-04-10T09:52:16.353Z,25.09
2018-04-10T09:54:43.991Z,22.25
2018-04-10T09:57:11.581Z,21.25
2018-04-10T09:59:39.173Z,21.85
2018-04-10T10:02:06.749Z,22.26
2018-04-10T10:04:34.414Z,21.86
2018-04-10T10:07:02.037Z,20.71
2018-04-10T10:09:29.638Z,20.62
2018-04-10T10:11:57.297Z,20.94
2018-04-10T10:14:24.880Z,19.14
2018-04-10T10:16:52.460Z,20.92
2018-04-10T10:19:20.095Z,20.80
2018-04-10T10:21:47.709Z,20.10
2018-04-10T10:24:15.324Z,20.26
2018-04-10T10:26:42.965Z,20.78
2018-04-10T10:29:10.549Z,23.81
2018-04-10T10:31:38.150Z,23.47
2018-04-10T10:34:05.789Z,21.95
2018-04-10T10:36:33.370Z,21.63
2018-04-10T10:39:00.953Z,22.53
2018-04-10T10:41:28.545Z,22.29
2018-04-10T10:43:56.141Z,21.50
2018-04-10T10:46:23.754Z,20.93
2018-04-10T10:48:51.338Z,22.09
2018-04-10T10:51:18.933Z,21.05
2018-04-10T10:53:46.561Z,19.87
2018-04-10T10:56:14.177Z,19.28
2018-04-10T10:58:41.784Z,19.40
2018-04-10T11:01:09.365Z,18.46
2018-04-10T11:03:37.005Z,18.97
2018-04-10T11:06:04.633Z,18.29
2018-04-10T11:08:32.257Z,18.32
2018-04-10T11:10:59.846Z,19.40
2018-04-10T11:13:27.465Z,20.75
2018-04-10T11:15:55.133Z,20.09
2018-04-10T11:18:22.725Z,19.64
2018-04-10T11:20:50.320Z,19.75
2018-04-10T11:23:17.963Z,19.50
2018-04-10T11:25:45.548Z,18.58
2018-04-10T11:28:13.144Z,18.38
2018-04-10T11:30:40.794Z,18.88
2018-04-10T11:33:08.503Z,19.15
2018-04-10T11:35:36.109Z,18.97
2018-04-10T11:38:03.696Z,19.75
2018-04-10T11:40:31.283Z,19.62
2018-04-10T11:42:58.904Z,19.49
2018-04-10T11:45:26.528Z,18.90
2018-04-10T11:47:54.113Z,18.83
2018-04-10T11:50:21.697Z,17.85
2018-04-10T11:52:49.312Z,18.48
2018-04-10T11:55:16.929Z,18.65
2018-04-10T11:57:44.505Z,17.46
2018-04-10T12:00:12.142Z,18.99
2018-04-10T12:02:39.767Z,19.84
2018-04-10T12:05:07.443Z,19.10
2018-04-10T12:07:35.040Z,19.50
2018-04-10T12:10:02.629Z,19.47
2018-04-10T12:12:30.360Z,19.65
2018-04-10T12:14:57.942Z,20.39
2018-04-10T12:17:25.521Z,20.39
2018-04-10T12:19:53.157Z,19.48
2018-04-10T12:22:20.777Z,18.63
2018-04-10T12:24:48.360Z,18.68
2018-04-10T12:27:15.948Z,20.41
2018-04-10T12:29:43.566Z,19.71
2018-04-10T12:32:11.189Z,20.32
2018-04-10T12:34:38.780Z,20.63
2018-04-10T12:37:06.427Z,19.00
2018-04-10T12:39:34.028Z,17.94
2018-04-10T12:42:01.617Z,17.91
2018-04-10T12:44:29.238Z,20.25
2018-04-10T12:46:56.808Z,18.83
2018-04-10T12:49:24.414Z,20.19
2018-04-10T12:51:52.065Z,20.52
2018-04-10T12:54:19.656Z,19.49
2018-04-10T12:56:47.289Z,22.60
2018-04-10T12:59:14.888Z,20.38
2018-04-10T13:01:42.472Z,21.55
2018-04-10T13:04:10.100Z,20.69
2018-04-10T13:06:37.688Z,22.43
2018-04-10T13:09:08.073Z,21.94
2018-04-10T13:11:35.696Z,23.30
2018-04-10T13:14:03.352Z,22.92
2018-04-10T13:16:30.939Z,23.60
2018-04-10T13:18:58.561Z,23.47
2018-04-10T13:21:26.138Z,23.68
2018-04-10T13:23:53.720Z,23.73
2018-04-10T13:26:21.380Z,24.26
2018-04-10T13:28:48.958Z,24.83
2018-04-10T13:31:16.590Z,25.95
2018-04-10T13:33:44.201Z,26.33
2018-04-10T13:36:11.789Z,26.11
2018-04-10T13:38:39.400Z,25.38
2018-04-10T13:41:07.020Z,26.71
2018-04-10T13:43:34.601Z,28.14
2018-04-10T13:46:02.223Z,29.39
2018-04-10T13:48:29.804Z,30.96
2018-04-10T13:50:57.405Z,30.29
2018-04-10T13:53:24.989Z,30.15
2018-04-10T13:55:52.581Z,30.02
2018-04-10T13:58:20.189Z,30.68
2018-04-10T14:00:47.808Z,30.78
2018-04-10T14:03:15.436Z,31.36
2018-04-10T14:05:43.059Z,32.33
2018-04-10T14:08:10.725Z,32.15
2018-04-10T14:10:38.329Z,31.52
2018-04-10T14:13:05.921Z,32.22
2018-04-10T14:15:33.548Z,31.50
2018-04-10T14:18:01.138Z,31.44
2018-04-10T14:20:28.721Z,32.31
2018-04-10T14:22:56.361Z,33.13
2018-04-10T14:25:24.021Z,31.77
2018-04-10T14:27:51.629Z,32.08
2018-04-10T14:30:19.284Z,32.73
2018-04-10T14:32:46.873Z,32.34
2018-04-10T14:35:14.489Z,32.65
2018-04-10T14:37:42.122Z,32.75
2018-04-10T14:40:09.709Z,32.24
2018-04-10T14:42:37.313Z,32.14
2018-04-10T14:45:04.904Z,32.02
2018-04-10T14:47:32.543Z,32.49
2018-04-10T14:50:00.126Z,31.95
2018-04-10T14:52:27.805Z,31.88
2018-04-10T14:54:55.433Z,32.27
2018-04-10T14:57:23.023Z,31.47
2018-04-10T14:59:50.696Z,31.67
2018-04-10T15:02:18.308Z,32.07
2018-04-10T15:04:45.940Z,31.91
2018-04-10T15:07:13.529Z,32.92
2018-04-10T15:09:41.112Z,33.76
2018-04-10T15:12:08.706Z,33.55
2018-04-10T15:14:36.326Z,33.35
2018-04-10T15:17:03.921Z,33.51
2018-04-10T15:19:31.547Z,33.73
2018-04-10T15:21:59.172Z,32.82
2018-04-10T15:24:26.755Z,32.88
2018-04-10T15:26:54.345Z,32.29
2018-04-10T15:29:21.937Z,31.91
2018-04-10T15:31:49.575Z,31.25
2018-04-10T15:34:17.204Z,32.16
2018-04-10T15:36:44.757Z,33.24
2018-04-10T15:39:12.393Z,33.76
2018-04-10T15:41:40.053Z,34.61
2018-04-10T15:44:07.633Z,34.35
2018-04-10T15:46:35.225Z,33.86
2018-04-10T15:49:02.864Z,34.85
2018-04-10T15:51:30.456Z,35.18
2018-04-10T15:53:58.037Z,35.31
2018-04-10T15:56:25.648Z,34.97
2018-04-10T15:58:53.266Z,35.76
2018-04-10T16:01:20.849Z,35.15
2018-04-10T16:03:48.457Z,35.57
2018-04-10T16:06:16.125Z,35.62
2018-04-10T16:08:43.744Z,36.02
2018-04-10T16:11:11.337Z,35.86
2018-04-10T16:13:40.653Z,36.52
2018-04-10T16:16:08.237Z,36.73
2018-04-10T16:18:35.833Z,37.48
2018-04-10T16:21:03.494Z,37.96
2018-04-10T16:23:31.188Z,38.29
2018-04-10T16:25:58.809Z,38.02
2018-04-10T16:28:26.404Z,38.60
2018-04-10T16:30:54.050Z,38.77
2018-04-10T16:33:21.629Z,39.50
2018-04-10T16:35:49.241Z,39.41
2018-04-10T16:38:16.857Z,39.42
2018-04-10T16:40:44.449Z,39.74
2018-04-10T16:43:12.051Z,39.80
2018-04-10T16:45:39.636Z,39.81
2018-04-10T16:48:07.393Z,40.21
2018-04-10T16:50:35.012Z,40.21
2018-04-10T16:53:02.630Z,40.33
2018-04-10T16:55:30.248Z,40.75
2018-04-10T16:57:57.833Z,41.48
2018-04-10T17:00:25.430Z,42.00
2018-04-10T17:02:53.060Z,42.07
2018-04-10T17:05:20.894Z,41.79
2018-04-10T17:07:49.134Z,42.21
2018-04-10T17:10:17.114Z,42.80
2018-04-10T17:12:44.853Z,42.87
2018-04-10T17:15:12.769Z,43.49
2018-04-10T17:17:40.989Z,42.88
2018-04-10T17:20:09.372Z,42.85
2018-04-10T17:22:37.421Z,43.25
2018-04-10T17:25:05.034Z,43.83
2018-04-10T17:27:32.618Z,43.05
2018-04-10T17:30:00.280Z,44.07
2018-04-10T17:32:27.917Z,44.17
2018-04-10T17:34:55.518Z,44.60
2018-04-10T17:37:23.218Z,44.38
2018-04-10T17:39:50.852Z,43.90
2018-04-10T17:42:18.483Z,44.14
2018-04-10T17:44:46.060Z,44.52
2018-04-10T17:47:13.656Z,44.77
2018-04-10T17:49:41.352Z,44.29
2018-04-10T17:52:08.969Z,44.58
2018-04-10T17:54:36.657Z,44.74
2018-04-10T17:57:04.343Z,45.21
2018-04-10T17:59:32.227Z,45.58
2018-04-10T18:01:59.945Z,46.20
2018-04-10T18:04:27.585Z,46.15
2018-04-10T18:06:55.325Z,46.13
2018-04-10T18:09:22.929Z,46.33
2018-04-10T18:11:50.559Z,46.28
2018-04-10T18:14:18.173Z,47.07
2018-04-10T18:16:46.961Z,47.38
2018-04-10T18:19:14.598Z,47.29
2018-04-10T18:21:42.229Z,48.45
2018-04-10T18:24:09.808Z,48.95
2018-04-10T18:26:37.430Z,48.86
2018-04-10T18:29:05.053Z,48.79
2018-04-10T18:31:32.649Z,48.27
2018-04-10T18:34:00.229Z,48.22
2018-04-10T18:36:27.857Z,47.94
2018-04-10T18:38:55.476Z,48.28
2018-04-10T18:41:23.100Z,48.63
2018-04-10T18:43:50.748Z,49.12
2018-04-10T18:46:18.353Z,49.15
2018-04-10T18:48:45.985Z,49.35
2018-04-10T18:51:13.574Z,49.00
2018-04-10T18:53:41.173Z,49.00
2018-04-10T18:56:08.772Z,49.42
2018-04-10T18:58:36.412Z,48.91
2018-04-10T19:01:04.033Z,48.71
2018-04-10T19:03:31.892Z,48.89
2018-04-10T19:05:59.522Z,48.80
2018-04-10T19:08:27.104Z,48.84
2018-04-10T19:10:54.692Z,49.33
2018-04-10T19:13:22.281Z,48.64
2018-04-10T19:15:49.877Z,49.58
2018-04-10T19:18:17.457Z,49.50
2018-04-10T19:20:45.085Z,49.64
2018-04-10T19:23:12.670Z,49.50
2018-04-10T19:25:40.265Z,49.80
2018-04-10T19:28:07.940Z,49.76
2018-04-10T19:30:35.541Z,49.67
2018-04-10T19:33:03.225Z,49.88
2018-04-10T19:35:30.861Z,49.92
2018-04-10T19:37:58.443Z,49.93
2018-04-10T19:40:26.064Z,49.79
2018-04-10T19:42:53.741Z,50.26
2018-04-10T19:45:21.345Z,49.89
2018-04-10T19:47:48.933Z,50.26
2018-04-10T19:50:16.557Z,50.00
2018-04-10T19:52:44.166Z,50.73
2018-04-10T19:55:11.752Z,50.75
2018-04-10T19:57:39.417Z,50.57
2018-04-10T20:00:07.000Z,50.91
2018-04-10T20:02:34.593Z,50.91
2018-04-10T20:05:02.203Z,50.73
2018-04-10T20:07:29.789Z,51.11
2018-04-10T20:09:57.470Z,51.11
2018-04-10T20:12:25.103Z,51.84
2018-04-10T20:14:52.705Z,51.58
2018-04-10T20:17:20.292Z,52.02
2018-04-10T20:19:47.953Z,52.46
2018-04-10T20:22:15.577Z,51.75
2018-04-10T20:24:43.165Z,51.67
2018-04-10T20:27:10.753Z,51.43
2018-04-10T20:29:38.361Z,51.61
2018-04-10T20:32:05.981Z,52.29
2018-04-10T20:34:33.573Z,52.57
2018-04-10T20:37:01.234Z,52.34
2018-04-10T20:39:28.861Z,52.08
2018-04-10T20:41:56.453Z,52.41
2018-04-10T20:44:24.129Z,53.16
2018-04-10T20:46:51.714Z,53.53
2018-04-10T20:49:19.333Z,53.32
2018-04-10T20:51:46.969Z,53.30
2018-04-10T20:54:14.553Z,54.39
2018-04-10T20:56:42.137Z,54.44
2018-04-10T20:59:09.729Z,54.06
2018-04-10T21:01:37.352Z,54.66
2018-04-10T21:04:04.941Z,54.28
2018-04-10T21:06:32.534Z,54.97
2018-04-10T21:09:00.152Z,54.69
2018-04-10T21:11:27.817Z,55.30
2018-04-10T21:13:55.416Z,55.47
2018-04-10T21:16:23.057Z,56.33
2018-04-10T21:18:50.657Z,57.91
2018-04-10T21:21:18.245Z,58.72
2018-04-10T21:23:45.840Z,59.45
2018-04-10T21:26:13.435Z,59.25
2018-04-10T21:28:41.077Z,60.76
2018-04-10T21:31:08.817Z,60.84
2018-04-10T21:33:36.408Z,61.10
2018-04-10T21:36:03.997Z,61.68
2018-04-10T21:38:31.584Z,61.98
2018-04-10T21:40:59.184Z,62.69
2018-04-10T21:43:31.216Z,62.56
2018-04-10T21:45:58.842Z,62.25
2018-04-10T21:48:26.428Z,63.11
2018-04-10T21:50:54.021Z,63.15
2018-04-10T21:53:21.641Z,62.62
2018-04-10T21:55:49.241Z,62.73
2018-04-10T21:58:16.829Z,62.71
2018-04-10T22:00:44.969Z,62.16
2018-04-10T22:03:12.577Z,62.41
2018-04-10T22:05:40.287Z,62.70
2018-04-10T22:08:07.909Z,61.54
2018-04-10T22:10:35.496Z,61.72
2018-04-10T22:13:03.086Z,61.87
2018-04-10T22:15:30.676Z,62.93
2018-04-10T22:17:58.265Z,62.78
2018-04-10T22:20:25.897Z,62.60
2018-04-10T22:22:53.576Z,63.09
2018-04-10T22:25:21.160Z,63.56
2018-04-10T22:27:48.792Z,62.90
2018-04-10T22:30:16.420Z,63.21
2018-04-10T22:32:43.973Z,63.25
2018-04-10T22:35:11.581Z,63.91
2018-04-10T22:37:39.648Z,63.99
2018-04-10T22:40:07.288Z,63.62
2018-04-10T22:42:34.897Z,62.72
2018-04-10T22:45:02.549Z,61.08
2018-04-10T22:47:30.172Z,60.78
2018-04-10T22:49:57.782Z,60.83
2018-04-10T22:52:25.409Z,60.90
2018-04-10T22:54:53.038Z,60.40
2018-04-10T22:57:20.673Z,60.50
2018-04-10T22:59:48.322Z,61.50
2018-04-10T23:02:15.901Z,61.12
2018-04-10T23:04:43.530Z,61.59
2018-04-10T23:07:11.136Z,62.16
2018-04-10T23:09:38.733Z,62.39
2018-04-10T23:12:06.412Z,62.84
2018-04-10T23:14:34.013Z,63.43
2018-04-10T23:17:01.623Z,62.95
2018-04-10T23:19:29.250Z,62.44
2018-04-10T23:21:56.857Z,62.80
2018-04-10T23:24:24.529Z,62.47
2018-04-10T23:26:52.160Z,61.94
2018-04-10T23:29:19.771Z,62.21
2018-04-10T23:31:47.379Z,61.93
2018-04-10T23:34:14.967Z,62.00
2018-04-10T23:36:42.605Z,61.24
2018-04-10T23:39:10.244Z,61.54
2018-04-10T23:41:37.945Z,61.41
2018-04-10T23:44:05.589Z,62.18
2018-04-10T23:46:33.206Z,63.45
2018-04-10T23:49:00.797Z,64.91
2018-04-10T23:51:28.390Z,65.09
2018-04-10T23:53:55.985Z,65.41
2018-04-10T23:56:23.577Z,65.15
2018-04-10T23:58:51.177Z,63.66
